sensor_id;sensor_type;location;lat;lon;timestamp;P1;durP1;ratioP1;P2;durP2;ratioP2
20383;SDS011;46458;50.966;7.002;2023-05-25T00:02:07;12.70;;;6.20;;
20383;SDS011;46458;50.966;7.002;2023-05-25T00:04:39;15.20;;;6.43;;
20383;SDS011;46458;50.966;7.002;2023-05-25T00:07:14;19.87;;;7.00;;
20383;SDS011;46458;50.966;7.002;2023-05-25T00:09:46;13.80;;;6.10;;
20383;SDS011;46458;50.966;7.002;2023-05-25T00:12:15;14.70;;;6.60;;
20383;SDS011;46458;50.966;7.002;2023-05-25T00:14:46;12.67;;;5.97;;
20383;SDS011;46458;50.966;7.002;2023-05-25T00:17:15;15.07;;;6.20;;
20383;SDS011;46458;50.966;7.002;2023-05-25T00:19:46;14.97;;;6.50;;
20383;SDS011;46458;50.966;7.002;2023-05-25T00:22:15;13.37;;;6.47;;
20383;SDS011;46458;50.966;7.002;2023-05-25T00:24:55;11.60;;;6.47;;
20383;SDS011;46458;50.966;7.002;2023-05-25T00:27:27;11.37;;;6.43;;
20383;SDS011;46458;50.966;7.002;2023-05-25T00:29:59;11.97;;;6.07;;
20383;SDS011;46458;50.966;7.002;2023-05-25T00:32:31;14.03;;;7.10;;
20383;SDS011;46458;50.966;7.002;2023-05-25T00:35:00;12.57;;;6.87;;
20383;SDS011;46458;50.966;7.002;2023-05-25T00:37:29;18.10;;;7.17;;
20383;SDS011;46458;50.966;7.002;2023-05-25T00:40:00;13.50;;;6.60;;
20383;SDS011;46458;50.966;7.002;2023-05-25T00:42:31;22.00;;;8.13;;
20383;SDS011;46458;50.966;7.002;2023-05-25T00:45:06;13.47;;;6.50;;
20383;SDS011;46458;50.966;7.002;2023-05-25T00:47:35;14.57;;;6.97;;
20383;SDS011;46458;50.966;7.002;2023-05-25T00:50:07;13.67;;;7.03;;
20383;SDS011;46458;50.966;7.002;2023-05-25T00:52:37;15.57;;;7.53;;
20383;SDS011;46458;50.966;7.002;2023-05-25T00:55:09;18.10;;;7.30;;
20383;SDS011;46458;50.966;7.002;2023-05-25T00:57:39;13.60;;;7.90;;
20383;SDS011;46458;50.966;7.002;2023-05-25T01:00:10;11.63;;;7.00;;
20383;SDS011;46458;50.966;7.002;2023-05-25T01:02:41;14.10;;;6.83;;
20383;SDS011;46458;50.966;7.002;2023-05-25T01:05:15;10.73;;;6.63;;
20383;SDS011;46458;50.966;7.002;2023-05-25T01:07:47;11.83;;;6.60;;
20383;SDS011;46458;50.966;7.002;2023-05-25T01:10:23;15.73;;;7.27;;
20383;SDS011;46458;50.966;7.002;2023-05-25T01:12:53;14.53;;;7.43;;
20383;SDS011;46458;50.966;7.002;2023-05-25T01:15:24;12.17;;;7.00;;
20383;SDS011;46458;50.966;7.002;2023-05-25T01:17:59;12.53;;;6.60;;
20383;SDS011;46458;50.966;7.002;2023-05-25T01:20:27;16.67;;;6.90;;
20383;SDS011;46458;50.966;7.002;2023-05-25T01:23:01;11.53;;;6.57;;
20383;SDS011;46458;50.966;7.002;2023-05-25T01:25:46;10.87;;;6.00;;
20383;SDS011;46458;50.966;7.002;2023-05-25T01:28:24;15.10;;;6.37;;
20383;SDS011;46458;50.966;7.002;2023-05-25T01:30:56;14.43;;;6.57;;
20383;SDS011;46458;50.966;7.002;2023-05-25T01:33:27;14.07;;;6.80;;
20383;SDS011;46458;50.966;7.002;2023-05-25T01:35:57;11.13;;;6.60;;
20383;SDS011;46458;50.966;7.002;2023-05-25T01:38:30;19.10;;;6.10;;
20383;SDS011;46458;50.966;7.002;2023-05-25T01:40:59;15.10;;;6.60;;
20383;SDS011;46458;50.966;7.002;2023-05-25T01:43:29;11.23;;;6.17;;
20383;SDS011;46458;50.966;7.002;2023-05-25T01:46:04;16.10;;;6.30;;
20383;SDS011;46458;50.966;7.002;2023-05-25T01:48:41;16.33;;;6.47;;
20383;SDS011;46458;50.966;7.002;2023-05-25T01:51:20;13.50;;;5.83;;
20383;SDS011;46458;50.966;7.002;2023-05-25T01:54:06;16.10;;;6.53;;
20383;SDS011;46458;50.966;7.002;2023-05-25T01:56:45;13.00;;;6.60;;
20383;SDS011;46458;50.966;7.002;2023-05-25T01:59:19;12.73;;;5.87;;
20383;SDS011;46458;50.966;7.002;2023-05-25T02:01:51;14.23;;;6.70;;
20383;SDS011;46458;50.966;7.002;2023-05-25T02:04:20;15.93;;;6.90;;
20383;SDS011;46458;50.966;7.002;2023-05-25T02:06:50;15.53;;;7.27;;
20383;SDS011;46458;50.966;7.002;2023-05-25T02:09:21;14.50;;;6.20;;
20383;SDS011;46458;50.966;7.002;2023-05-25T02:11:50;13.03;;;6.60;;
20383;SDS011;46458;50.966;7.002;2023-05-25T02:14:22;15.93;;;7.20;;
20383;SDS011;46458;50.966;7.002;2023-05-25T02:16:52;15.13;;;6.33;;
20383;SDS011;46458;50.966;7.002;2023-05-25T02:19:26;15.10;;;6.40;;
20383;SDS011;46458;50.966;7.002;2023-05-25T02:21:58;13.67;;;6.30;;
20383;SDS011;46458;50.966;7.002;2023-05-25T02:24:29;11.97;;;6.67;;
20383;SDS011;46458;50.966;7.002;2023-05-25T02:26:59;15.00;;;6.70;;
20383;SDS011;46458;50.966;7.002;2023-05-25T02:29:28;12.97;;;6.53;;
20383;SDS011;46458;50.966;7.002;2023-05-25T02:31:57;12.00;;;6.80;;
20383;SDS011;46458;50.966;7.002;2023-05-25T02:34:27;15.40;;;7.33;;
20383;SDS011;46458;50.966;7.002;2023-05-25T02:36:56;15.60;;;6.07;;
20383;SDS011;46458;50.966;7.002;2023-05-25T02:39:29;11.33;;;6.57;;
20383;SDS011;46458;50.966;7.002;2023-05-25T02:41:59;17.53;;;6.83;;
20383;SDS011;46458;50.966;7.002;2023-05-25T02:44:31;12.00;;;6.30;;
20383;SDS011;46458;50.966;7.002;2023-05-25T02:46:59;12.87;;;6.57;;
20383;SDS011;46458;50.966;7.002;2023-05-25T02:49:28;13.67;;;6.73;;
20383;SDS011;46458;50.966;7.002;2023-05-25T02:51:58;11.83;;;6.93;;
20383;SDS011;46458;50.966;7.002;2023-05-25T02:54:33;16.93;;;7.17;;
20383;SDS011;46458;50.966;7.002;2023-05-25T02:57:05;17.73;;;7.43;;
20383;SDS011;46458;50.966;7.002;2023-05-25T02:59:35;14.13;;;6.73;;
20383;SDS011;46458;50.966;7.002;2023-05-25T03:02:04;13.30;;;6.83;;
20383;SDS011;46458;50.966;7.002;2023-05-25T03:04:33;11.37;;;7.57;;
20383;SDS011;46458;50.966;7.002;2023-05-25T03:07:03;15.57;;;7.50;;
20383;SDS011;46458;50.966;7.002;2023-05-25T03:09:35;15.13;;;7.30;;
20383;SDS011;46458;50.966;7.002;2023-05-25T03:12:04;14.67;;;6.70;;
20383;SDS011;46458;50.966;7.002;2023-05-25T03:14:35;15.00;;;7.30;;
20383;SDS011;46458;50.966;7.002;2023-05-25T03:17:04;13.87;;;7.00;;
20383;SDS011;46458;50.966;7.002;2023-05-25T03:19:33;15.97;;;6.60;;
20383;SDS011;46458;50.966;7.002;2023-05-25T03:22:02;12.67;;;7.63;;
20383;SDS011;46458;50.966;7.002;2023-05-25T03:24:35;14.47;;;7.03;;
20383;SDS011;46458;50.966;7.002;2023-05-25T03:27:06;18.67;;;8.13;;
20383;SDS011;46458;50.966;7.002;2023-05-25T03:29:36;16.47;;;7.60;;
20383;SDS011;46458;50.966;7.002;2023-05-25T03:32:05;15.57;;;8.33;;
20383;SDS011;46458;50.966;7.002;2023-05-25T03:34:35;18.10;;;8.00;;
20383;SDS011;46458;50.966;7.002;2023-05-25T03:37:05;12.77;;;6.93;;
20383;SDS011;46458;50.966;7.002;2023-05-25T03:39:37;18.57;;;7.47;;
20383;SDS011;46458;50.966;7.002;2023-05-25T03:42:07;13.70;;;7.20;;
20383;SDS011;46458;50.966;7.002;2023-05-25T03:44:36;13.93;;;7.10;;
20383;SDS011;46458;50.966;7.002;2023-05-25T03:47:06;13.30;;;7.00;;
20383;SDS011;46458;50.966;7.002;2023-05-25T03:49:36;16.03;;;7.53;;
20383;SDS011;46458;50.966;7.002;2023-05-25T03:52:05;15.63;;;7.63;;
20383;SDS011;46458;50.966;7.002;2023-05-25T03:54:37;15.60;;;7.07;;
20383;SDS011;46458;50.966;7.002;2023-05-25T03:57:07;14.10;;;7.27;;
20383;SDS011;46458;50.966;7.002;2023-05-25T03:59:38;16.87;;;7.63;;
20383;SDS011;46458;50.966;7.002;2023-05-25T04:02:08;11.53;;;6.83;;
20383;SDS011;46458;50.966;7.002;2023-05-25T04:04:36;11.30;;;7.40;;
20383;SDS011;46458;50.966;7.002;2023-05-25T04:07:06;14.27;;;7.00;;
20383;SDS011;46458;50.966;7.002;2023-05-25T04:09:37;19.37;;;6.83;;
20383;SDS011;46458;50.966;7.002;2023-05-25T04:12:09;11.30;;;6.47;;
20383;SDS011;46458;50.966;7.002;2023-05-25T04:14:38;14.47;;;7.43;;
20383;SDS011;46458;50.966;7.002;2023-05-25T04:17:07;13.57;;;6.93;;
20383;SDS011;46458;50.966;7.002;2023-05-25T04:19:36;15.50;;;7.00;;
20383;SDS011;46458;50.966;7.002;2023-05-25T04:22:08;13.83;;;8.20;;
20383;SDS011;46458;50.966;7.002;2023-05-25T04:24:39;16.17;;;7.40;;
20383;SDS011;46458;50.966;7.002;2023-05-25T04:27:10;16.33;;;7.73;;
20383;SDS011;46458;50.966;7.002;2023-05-25T04:29:39;12.77;;;7.77;;
20383;SDS011;46458;50.966;7.002;2023-05-25T04:32:34;17.00;;;8.70;;
20383;SDS011;46458;50.966;7.002;2023-05-25T04:35:32;15.70;;;9.10;;
20383;SDS011;46458;50.966;7.002;2023-05-25T04:38:02;17.50;;;8.53;;
20383;SDS011;46458;50.966;7.002;2023-05-25T04:40:34;14.33;;;9.07;;
20383;SDS011;46458;50.966;7.002;2023-05-25T04:43:06;16.20;;;8.33;;
20383;SDS011;46458;50.966;7.002;2023-05-25T04:45:38;19.47;;;8.83;;
20383;SDS011;46458;50.966;7.002;2023-05-25T04:48:08;21.07;;;8.90;;
20383;SDS011;46458;50.966;7.002;2023-05-25T04:50:40;14.77;;;8.67;;
20383;SDS011;46458;50.966;7.002;2023-05-25T04:53:09;20.73;;;8.57;;
20383;SDS011;46458;50.966;7.002;2023-05-25T04:55:41;17.10;;;8.50;;
20383;SDS011;46458;50.966;7.002;2023-05-25T04:58:10;20.67;;;8.87;;
20383;SDS011;46458;50.966;7.002;2023-05-25T05:00:39;16.40;;;9.23;;
20383;SDS011;46458;50.966;7.002;2023-05-25T05:03:09;16.73;;;9.07;;
20383;SDS011;46458;50.966;7.002;2023-05-25T05:05:38;17.47;;;9.80;;
20383;SDS011;46458;50.966;7.002;2023-05-25T05:08:11;20.73;;;9.30;;
20383;SDS011;46458;50.966;7.002;2023-05-25T05:10:49;21.93;;;10.00;;
20383;SDS011;46458;50.966;7.002;2023-05-25T05:13:18;14.07;;;10.10;;
20383;SDS011;46458;50.966;7.002;2023-05-25T05:15:47;19.50;;;10.60;;
20383;SDS011;46458;50.966;7.002;2023-05-25T05:18:16;27.73;;;11.40;;
20383;SDS011;46458;50.966;7.002;2023-05-25T05:20:45;18.57;;;10.63;;
20383;SDS011;46458;50.966;7.002;2023-05-25T05:23:17;21.40;;;11.33;;
20383;SDS011;46458;50.966;7.002;2023-05-25T05:25:48;17.40;;;10.40;;
20383;SDS011;46458;50.966;7.002;2023-05-25T05:28:17;21.67;;;10.97;;
20383;SDS011;46458;50.966;7.002;2023-05-25T05:30:46;22.30;;;11.50;;
20383;SDS011;46458;50.966;7.002;2023-05-25T05:33:15;19.73;;;11.17;;
20383;SDS011;46458;50.966;7.002;2023-05-25T05:35:51;19.73;;;10.53;;
20383;SDS011;46458;50.966;7.002;2023-05-25T05:38:21;22.47;;;11.83;;
20383;SDS011;46458;50.966;7.002;2023-05-25T05:40:55;17.20;;;10.33;;
20383;SDS011;46458;50.966;7.002;2023-05-25T05:43:24;20.50;;;11.80;;
20383;SDS011;46458;50.966;7.002;2023-05-25T05:45:53;22.73;;;12.40;;
20383;SDS011;46458;50.966;7.002;2023-05-25T05:48:21;19.90;;;10.87;;
20383;SDS011;46458;50.966;7.002;2023-05-25T05:50:50;17.17;;;9.60;;
20383;SDS011;46458;50.966;7.002;2023-05-25T05:53:19;17.37;;;9.60;;
20383;SDS011;46458;50.966;7.002;2023-05-25T05:55:49;17.53;;;9.60;;
20383;SDS011;46458;50.966;7.002;2023-05-25T05:58:25;19.60;;;9.73;;
20383;SDS011;46458;50.966;7.002;2023-05-25T06:00:56;20.03;;;9.60;;
20383;SDS011;46458;50.966;7.002;2023-05-25T06:03:26;15.27;;;8.83;;
20383;SDS011;46458;50.966;7.002;2023-05-25T06:05:55;15.57;;;9.23;;
20383;SDS011;46458;50.966;7.002;2023-05-25T06:08:24;16.43;;;8.37;;
20383;SDS011;46458;50.966;7.002;2023-05-25T06:10:53;16.17;;;8.53;;
20383;SDS011;46458;50.966;7.002;2023-05-25T06:13:23;17.03;;;8.40;;
20383;SDS011;46458;50.966;7.002;2023-05-25T06:15:55;16.43;;;8.53;;
20383;SDS011;46458;50.966;7.002;2023-05-25T06:18:24;18.37;;;9.17;;
20383;SDS011;46458;50.966;7.002;2023-05-25T06:20:53;16.50;;;8.97;;
20383;SDS011;46458;50.966;7.002;2023-05-25T06:23:22;17.23;;;9.47;;
20383;SDS011;46458;50.966;7.002;2023-05-25T06:25:51;20.40;;;8.77;;
20383;SDS011;46458;50.966;7.002;2023-05-25T06:28:21;14.90;;;9.10;;
20383;SDS011;46458;50.966;7.002;2023-05-25T06:30:53;15.30;;;9.67;;
20383;SDS011;46458;50.966;7.002;2023-05-25T06:33:22;16.70;;;9.33;;
20383;SDS011;46458;50.966;7.002;2023-05-25T06:35:51;17.87;;;9.93;;
20383;SDS011;46458;50.966;7.002;2023-05-25T06:38:26;20.07;;;9.83;;
20383;SDS011;46458;50.966;7.002;2023-05-25T06:40:56;20.40;;;9.00;;
20383;SDS011;46458;50.966;7.002;2023-05-25T06:43:29;19.37;;;9.17;;
20383;SDS011;46458;50.966;7.002;2023-05-25T06:46:14;13.33;;;9.17;;
20383;SDS011;46458;50.966;7.002;2023-05-25T06:48:43;19.40;;;8.73;;
20383;SDS011;46458;50.966;7.002;2023-05-25T06:51:12;21.00;;;8.67;;
20383;SDS011;46458;50.966;7.002;2023-05-25T06:53:41;15.27;;;8.70;;
20383;SDS011;46458;50.966;7.002;2023-05-25T06:56:13;17.87;;;7.90;;
20383;SDS011;46458;50.966;7.002;2023-05-25T06:58:41;18.80;;;8.70;;
20383;SDS011;46458;50.966;7.002;2023-05-25T07:01:10;17.97;;;8.37;;
20383;SDS011;46458;50.966;7.002;2023-05-25T07:03:42;18.07;;;8.13;;
20383;SDS011;46458;50.966;7.002;2023-05-25T07:06:14;16.17;;;7.17;;
20383;SDS011;46458;50.966;7.002;2023-05-25T07:08:43;19.50;;;8.53;;
20383;SDS011;46458;50.966;7.002;2023-05-25T07:11:12;17.40;;;8.07;;
20383;SDS011;46458;50.966;7.002;2023-05-25T07:13:44;21.40;;;7.70;;
20383;SDS011;46458;50.966;7.002;2023-05-25T07:16:16;17.50;;;8.40;;
20383;SDS011;46458;50.966;7.002;2023-05-25T07:18:45;14.53;;;8.17;;
20383;SDS011;46458;50.966;7.002;2023-05-25T07:21:13;15.40;;;7.23;;
20383;SDS011;46458;50.966;7.002;2023-05-25T07:23:49;15.17;;;7.83;;
20383;SDS011;46458;50.966;7.002;2023-05-25T07:26:20;17.50;;;7.70;;
20383;SDS011;46458;50.966;7.002;2023-05-25T07:28:50;15.83;;;8.67;;
20383;SDS011;46458;50.966;7.002;2023-05-25T07:31:21;20.97;;;8.00;;
20383;SDS011;46458;50.966;7.002;2023-05-25T07:33:52;14.47;;;7.97;;
20383;SDS011;46458;50.966;7.002;2023-05-25T07:36:21;15.37;;;8.03;;
20383;SDS011;46458;50.966;7.002;2023-05-25T07:38:50;16.17;;;7.90;;
20383;SDS011;46458;50.966;7.002;2023-05-25T07:41:20;13.20;;;7.90;;
20383;SDS011;46458;50.966;7.002;2023-05-25T07:43:48;16.73;;;7.60;;
20383;SDS011;46458;50.966;7.002;2023-05-25T07:46:17;13.33;;;7.97;;
20383;SDS011;46458;50.966;7.002;2023-05-25T07:48:51;17.57;;;8.10;;
20383;SDS011;46458;50.966;7.002;2023-05-25T07:51:23;13.97;;;8.03;;
20383;SDS011;46458;50.966;7.002;2023-05-25T07:53:53;15.93;;;9.23;;
20383;SDS011;46458;50.966;7.002;2023-05-25T07:56:22;15.43;;;7.43;;
20383;SDS011;46458;50.966;7.002;2023-05-25T07:58:53;14.33;;;8.83;;
20383;SDS011;46458;50.966;7.002;2023-05-25T08:01:22;17.53;;;9.00;;
20383;SDS011;46458;50.966;7.002;2023-05-25T08:03:53;20.57;;;8.53;;
20383;SDS011;46458;50.966;7.002;2023-05-25T08:06:22;14.13;;;8.47;;
20383;SDS011;46458;50.966;7.002;2023-05-25T08:08:51;12.90;;;8.60;;
20383;SDS011;46458;50.966;7.002;2023-05-25T08:11:21;21.47;;;9.97;;
20383;SDS011;46458;50.966;7.002;2023-05-25T08:13:52;16.97;;;8.83;;
20383;SDS011;46458;50.966;7.002;2023-05-25T08:16:24;16.30;;;9.23;;
20383;SDS011;46458;50.966;7.002;2023-05-25T08:18:55;16.53;;;8.40;;
20383;SDS011;46458;50.966;7.002;2023-05-25T08:21:25;17.80;;;9.33;;
20383;SDS011;46458;50.966;7.002;2023-05-25T08:23:54;16.83;;;8.83;;
20383;SDS011;46458;50.966;7.002;2023-05-25T08:26:23;15.20;;;8.30;;
20383;SDS011;46458;50.966;7.002;2023-05-25T08:28:54;15.07;;;8.87;;
20383;SDS011;46458;50.966;7.002;2023-05-25T08:31:23;20.33;;;8.67;;
20383;SDS011;46458;50.966;7.002;2023-05-25T08:33:55;14.93;;;6.83;;
20383;SDS011;46458;50.966;7.002;2023-05-25T08:36:25;12.23;;;7.03;;
20383;SDS011;46458;50.966;7.002;2023-05-25T08:38:54;11.80;;;7.43;;
20383;SDS011;46458;50.966;7.002;2023-05-25T08:41:22;10.77;;;6.27;;
20383;SDS011;46458;50.966;7.002;2023-05-25T08:43:51;11.80;;;6.35;;
20383;SDS011;46458;50.966;7.002;2023-05-25T08:46:23;13.27;;;7.00;;
20383;SDS011;46458;50.966;7.002;2023-05-25T08:49:02;9.48;;;5.75;;
20383;SDS011;46458;50.966;7.002;2023-05-25T08:51:36;9.97;;;5.63;;
20383;SDS011;46458;50.966;7.002;2023-05-25T08:54:09;10.75;;;6.93;;
20383;SDS011;46458;50.966;7.002;2023-05-25T08:56:40;12.02;;;6.68;;
20383;SDS011;46458;50.966;7.002;2023-05-25T08:59:27;12.45;;;6.90;;
20383;SDS011;46458;50.966;7.002;2023-05-25T09:02:10;13.90;;;6.78;;
20383;SDS011;46458;50.966;7.002;2023-05-25T09:04:51;12.60;;;5.68;;
20383;SDS011;46458;50.966;7.002;2023-05-25T09:07:20;12.07;;;6.28;;
20383;SDS011;46458;50.966;7.002;2023-05-25T09:09:49;9.20;;;5.00;;
20383;SDS011;46458;50.966;7.002;2023-05-25T09:12:22;10.63;;;5.53;;
20383;SDS011;46458;50.966;7.002;2023-05-25T09:14:54;9.38;;;5.25;;
20383;SDS011;46458;50.966;7.002;2023-05-25T09:17:26;9.40;;;5.50;;
20383;SDS011;46458;50.966;7.002;2023-05-25T09:20:01;8.85;;;5.03;;
20383;SDS011;46458;50.966;7.002;2023-05-25T09:22:30;10.00;;;5.07;;
20383;SDS011;46458;50.966;7.002;2023-05-25T09:24:59;9.82;;;5.47;;
20383;SDS011;46458;50.966;7.002;2023-05-25T09:27:29;11.25;;;6.65;;
20383;SDS011;46458;50.966;7.002;2023-05-25T09:30:02;9.68;;;5.38;;
20383;SDS011;46458;50.966;7.002;2023-05-25T09:32:32;9.90;;;4.97;;
20383;SDS011;46458;50.966;7.002;2023-05-25T09:35:08;7.53;;;4.63;;
20383;SDS011;46458;50.966;7.002;2023-05-25T09:37:39;10.65;;;5.47;;
20383;SDS011;46458;50.966;7.002;2023-05-25T09:40:08;8.70;;;4.80;;
20383;SDS011;46458;50.966;7.002;2023-05-25T09:42:40;9.45;;;5.68;;
20383;SDS011;46458;50.966;7.002;2023-05-25T09:45:09;8.25;;;5.60;;
20383;SDS011;46458;50.966;7.002;2023-05-25T09:47:38;12.07;;;5.68;;
20383;SDS011;46458;50.966;7.002;2023-05-25T09:50:15;10.40;;;5.75;;
20383;SDS011;46458;50.966;7.002;2023-05-25T09:52:43;7.25;;;5.22;;
20383;SDS011;46458;50.966;7.002;2023-05-25T09:55:12;10.77;;;5.50;;
20383;SDS011;46458;50.966;7.002;2023-05-25T09:57:43;10.10;;;6.30;;
20383;SDS011;46458;50.966;7.002;2023-05-25T10:00:12;9.13;;;5.90;;
20383;SDS011;46458;50.966;7.002;2023-05-25T10:02:43;9.05;;;4.93;;
20383;SDS011;46458;50.966;7.002;2023-05-25T10:05:11;7.38;;;5.38;;
20383;SDS011;46458;50.966;7.002;2023-05-25T10:07:43;9.38;;;5.88;;
20383;SDS011;46458;50.966;7.002;2023-05-25T10:10:13;8.70;;;5.28;;
20383;SDS011;46458;50.966;7.002;2023-05-25T10:12:43;8.18;;;4.57;;
20383;SDS011;46458;50.966;7.002;2023-05-25T10:15:14;8.52;;;4.90;;
20383;SDS011;46458;50.966;7.002;2023-05-25T10:17:48;9.20;;;4.97;;
20383;SDS011;46458;50.966;7.002;2023-05-25T10:20:23;10.90;;;5.90;;
20383;SDS011;46458;50.966;7.002;2023-05-25T10:22:54;11.57;;;5.47;;
20383;SDS011;46458;50.966;7.002;2023-05-25T10:25:28;11.25;;;5.47;;
20383;SDS011;46458;50.966;7.002;2023-05-25T10:28:01;12.35;;;6.32;;
20383;SDS011;46458;50.966;7.002;2023-05-25T10:30:34;12.82;;;5.85;;
20383;SDS011;46458;50.966;7.002;2023-05-25T10:33:19;9.23;;;5.55;;
20383;SDS011;46458;50.966;7.002;2023-05-25T10:35:51;6.60;;;4.75;;
20383;SDS011;46458;50.966;7.002;2023-05-25T10:38:22;7.28;;;4.50;;
20383;SDS011;46458;50.966;7.002;2023-05-25T10:40:53;9.80;;;5.00;;
20383;SDS011;46458;50.966;7.002;2023-05-25T10:43:23;10.15;;;4.47;;
20383;SDS011;46458;50.966;7.002;2023-05-25T10:45:57;8.30;;;5.13;;
20383;SDS011;46458;50.966;7.002;2023-05-25T10:48:34;10.25;;;4.55;;
20383;SDS011;46458;50.966;7.002;2023-05-25T10:51:06;6.03;;;4.57;;
20383;SDS011;46458;50.966;7.002;2023-05-25T10:53:35;8.23;;;4.55;;
20383;SDS011;46458;50.966;7.002;2023-05-25T10:56:10;6.28;;;4.38;;
20383;SDS011;46458;50.966;7.002;2023-05-25T10:58:40;7.18;;;5.00;;
20383;SDS011;46458;50.966;7.002;2023-05-25T11:01:11;8.00;;;4.45;;
20383;SDS011;46458;50.966;7.002;2023-05-25T11:03:46;7.55;;;4.80;;
20383;SDS011;46458;50.966;7.002;2023-05-25T11:09:25;9.48;;;4.93;;
20383;SDS011;46458;50.966;7.002;2023-05-25T11:12:01;8.10;;;4.85;;
20383;SDS011;46458;50.966;7.002;2023-05-25T11:14:31;6.38;;;5.00;;
20383;SDS011;46458;50.966;7.002;2023-05-25T11:17:09;8.20;;;4.82;;
20383;SDS011;46458;50.966;7.002;2023-05-25T11:19:43;8.75;;;5.25;;
20383;SDS011;46458;50.966;7.002;2023-05-25T11:22:13;6.03;;;4.55;;
20383;SDS011;46458;50.966;7.002;2023-05-25T11:24:48;5.57;;;4.78;;
20383;SDS011;46458;50.966;7.002;2023-05-25T11:27:20;8.90;;;4.90;;
20383;SDS011;46458;50.966;7.002;2023-05-25T11:29:53;6.50;;;4.72;;
20383;SDS011;46458;50.966;7.002;2023-05-25T11:32:23;8.63;;;5.93;;
20383;SDS011;46458;50.966;7.002;2023-05-25T11:34:53;5.80;;;4.93;;
20383;SDS011;46458;50.966;7.002;2023-05-25T11:37:25;9.32;;;5.20;;
20383;SDS011;46458;50.966;7.002;2023-05-25T11:39:58;9.95;;;5.82;;
20383;SDS011;46458;50.966;7.002;2023-05-25T11:42:27;8.90;;;5.95;;
20383;SDS011;46458;50.966;7.002;2023-05-25T11:45:00;6.40;;;5.43;;
20383;SDS011;46458;50.966;7.002;2023-05-25T11:47:30;6.82;;;5.95;;
20383;SDS011;46458;50.966;7.002;2023-05-25T11:50:02;9.65;;;5.97;;
20383;SDS011;46458;50.966;7.002;2023-05-25T11:52:41;8.35;;;5.70;;
20383;SDS011;46458;50.966;7.002;2023-05-25T11:55:13;7.82;;;4.80;;
20383;SDS011;46458;50.966;7.002;2023-05-25T11:57:45;9.32;;;5.80;;
20383;SDS011;46458;50.966;7.002;2023-05-25T12:00:23;8.02;;;5.03;;
20383;SDS011;46458;50.966;7.002;2023-05-25T12:02:53;5.93;;;5.28;;
20383;SDS011;46458;50.966;7.002;2023-05-25T12:05:22;6.57;;;5.60;;
20383;SDS011;46458;50.966;7.002;2023-05-25T12:07:51;6.63;;;5.97;;
20383;SDS011;46458;50.966;7.002;2023-05-25T12:10:23;9.52;;;7.22;;
20383;SDS011;46458;50.966;7.002;2023-05-25T12:12:55;9.85;;;7.03;;
20383;SDS011;46458;50.966;7.002;2023-05-25T12:15:27;10.35;;;7.00;;
20383;SDS011;46458;50.966;7.002;2023-05-25T12:17:59;10.40;;;7.40;;
20383;SDS011;46458;50.966;7.002;2023-05-25T12:20:28;11.75;;;8.73;;
20383;SDS011;46458;50.966;7.002;2023-05-25T12:22:57;11.00;;;8.90;;
20383;SDS011;46458;50.966;7.002;2023-05-25T12:25:29;10.05;;;8.57;;
20383;SDS011;46458;50.966;7.002;2023-05-25T12:28:10;13.32;;;9.30;;
20383;SDS011;46458;50.966;7.002;2023-05-25T12:30:40;12.40;;;8.93;;
20383;SDS011;46458;50.966;7.002;2023-05-25T12:33:11;12.20;;;9.13;;
20383;SDS011;46458;50.966;7.002;2023-05-25T12:35:44;10.30;;;8.55;;
20383;SDS011;46458;50.966;7.002;2023-05-25T12:38:18;14.23;;;9.73;;
20383;SDS011;46458;50.966;7.002;2023-05-25T12:40:55;13.18;;;9.77;;
20383;SDS011;46458;50.966;7.002;2023-05-25T12:43:35;12.77;;;9.23;;
20383;SDS011;46458;50.966;7.002;2023-05-25T12:46:08;12.65;;;9.88;;
20383;SDS011;46458;50.966;7.002;2023-05-25T12:48:37;11.77;;;9.50;;
20383;SDS011;46458;50.966;7.002;2023-05-25T12:51:12;12.98;;;10.48;;
20383;SDS011;46458;50.966;7.002;2023-05-25T12:53:47;11.93;;;10.73;;
20383;SDS011;46458;50.966;7.002;2023-05-25T12:56:21;14.10;;;9.18;;
20383;SDS011;46458;50.966;7.002;2023-05-25T12:58:51;9.63;;;8.23;;
20383;SDS011;46458;50.966;7.002;2023-05-25T13:01:20;9.45;;;7.68;;
20383;SDS011;46458;50.966;7.002;2023-05-25T13:03:48;10.93;;;6.85;;
20383;SDS011;46458;50.966;7.002;2023-05-25T13:06:17;9.13;;;6.20;;
20383;SDS011;46458;50.966;7.002;2023-05-25T13:08:46;9.63;;;6.10;;
20383;SDS011;46458;50.966;7.002;2023-05-25T13:11:15;8.27;;;6.28;;
20383;SDS011;46458;50.966;7.002;2023-05-25T13:13:46;7.68;;;5.35;;
20383;SDS011;46458;50.966;7.002;2023-05-25T13:16:20;8.00;;;4.85;;
20383;SDS011;46458;50.966;7.002;2023-05-25T13:18:52;8.40;;;5.38;;
20383;SDS011;46458;50.966;7.002;2023-05-25T13:21:21;8.70;;;5.03;;
20383;SDS011;46458;50.966;7.002;2023-05-25T13:23:49;7.93;;;5.20;;
20383;SDS011;46458;50.966;7.002;2023-05-25T13:26:18;6.20;;;4.63;;
20383;SDS011;46458;50.966;7.002;2023-05-25T13:28:50;9.73;;;5.50;;
20383;SDS011;46458;50.966;7.002;2023-05-25T13:31:18;7.25;;;4.50;;
20383;SDS011;46458;50.966;7.002;2023-05-25T13:33:47;6.90;;;5.05;;
20383;SDS011;46458;50.966;7.002;2023-05-25T13:36:16;5.72;;;4.65;;
20383;SDS011;46458;50.966;7.002;2023-05-25T13:38:45;8.35;;;4.95;;
20383;SDS011;46458;50.966;7.002;2023-05-25T13:41:14;7.22;;;4.30;;
20383;SDS011;46458;50.966;7.002;2023-05-25T13:43:43;7.22;;;4.88;;
20383;SDS011;46458;50.966;7.002;2023-05-25T13:46:15;7.70;;;5.00;;
20383;SDS011;46458;50.966;7.002;2023-05-25T13:48:44;7.45;;;4.85;;
20383;SDS011;46458;50.966;7.002;2023-05-25T13:51:13;6.75;;;4.55;;
20383;SDS011;46458;50.966;7.002;2023-05-25T13:53:42;6.95;;;5.13;;
20383;SDS011;46458;50.966;7.002;2023-05-25T13:56:13;6.40;;;4.28;;
20383;SDS011;46458;50.966;7.002;2023-05-25T13:58:42;4.93;;;4.18;;
20383;SDS011;46458;50.966;7.002;2023-05-25T14:01:20;5.50;;;4.10;;
20383;SDS011;46458;50.966;7.002;2023-05-25T14:03:54;5.13;;;3.92;;
20383;SDS011;46458;50.966;7.002;2023-05-25T14:06:24;10.32;;;5.35;;
20383;SDS011;46458;50.966;7.002;2023-05-25T14:08:53;7.35;;;5.47;;
20383;SDS011;46458;50.966;7.002;2023-05-25T14:11:22;6.40;;;4.57;;
20383;SDS011;46458;50.966;7.002;2023-05-25T14:13:51;7.78;;;4.90;;
20383;SDS011;46458;50.966;7.002;2023-05-25T14:16:22;6.53;;;4.80;;
20383;SDS011;46458;50.966;7.002;2023-05-25T14:18:51;8.43;;;5.18;;
20383;SDS011;46458;50.966;7.002;2023-05-25T14:21:20;5.90;;;4.25;;
20383;SDS011;46458;50.966;7.002;2023-05-25T14:23:50;7.22;;;4.82;;
20383;SDS011;46458;50.966;7.002;2023-05-25T14:26:19;7.80;;;5.03;;
20383;SDS011;46458;50.966;7.002;2023-05-25T14:28:48;7.97;;;5.22;;
20383;SDS011;46458;50.966;7.002;2023-05-25T14:31:22;10.07;;;5.45;;
20383;SDS011;46458;50.966;7.002;2023-05-25T14:33:51;6.32;;;4.95;;
20383;SDS011;46458;50.966;7.002;2023-05-25T14:36:20;7.97;;;4.57;;
20383;SDS011;46458;50.966;7.002;2023-05-25T14:38:48;7.90;;;5.35;;
20383;SDS011;46458;50.966;7.002;2023-05-25T14:41:17;6.30;;;5.18;;
20383;SDS011;46458;50.966;7.002;2023-05-25T14:43:49;7.63;;;5.28;;
20383;SDS011;46458;50.966;7.002;2023-05-25T14:46:18;9.55;;;6.07;;
20383;SDS011;46458;50.966;7.002;2023-05-25T14:48:49;11.00;;;5.95;;
20383;SDS011;46458;50.966;7.002;2023-05-25T14:51:18;8.35;;;5.10;;
20383;SDS011;46458;50.966;7.002;2023-05-25T14:53:47;7.72;;;5.38;;
20383;SDS011;46458;50.966;7.002;2023-05-25T14:56:17;6.68;;;4.68;;
20383;SDS011;46458;50.966;7.002;2023-05-25T14:58:47;8.57;;;5.03;;
20383;SDS011;46458;50.966;7.002;2023-05-25T15:01:19;10.95;;;5.65;;
20383;SDS011;46458;50.966;7.002;2023-05-25T15:04:00;8.23;;;5.70;;
20383;SDS011;46458;50.966;7.002;2023-05-25T15:06:29;6.15;;;5.43;;